sensor_id;sensor_type;location;lat;lon;timestamp;P1;durP1;ratioP1;P2;durP2;ratioP2
4835;SDS011;66719;51.226;6.902;2023-06-24T00:00:07;23.27;;;9.33;;
4835;SDS011;66719;51.226;6.902;2023-06-24T00:02:36;30.30;;;10.50;;
4835;SDS011;66719;51.226;6.902;2023-06-24T00:05:03;20.27;;;9.43;;
4835;SDS011;66719;51.226;6.902;2023-06-24T00:07:32;20.93;;;10.20;;
4835;SDS011;66719;51.226;6.902;2023-06-24T00:10:02;20.13;;;10.23;;
4835;SDS011;66719;51.226;6.902;2023-06-24T00:12:30;20.20;;;10.03;;
4835;SDS011;66719;51.226;6.902;2023-06-24T00:14:56;19.50;;;9.70;;
4835;SDS011;66719;51.226;6.902;2023-06-24T00:17:23;17.80;;;9.07;;
4835;SDS011;66719;51.226;6.902;2023-06-24T00:19:49;19.83;;;8.77;;
4835;SDS011;66719;51.226;6.902;2023-06-24T00:22:16;16.80;;;8.63;;
4835;SDS011;66719;51.226;6.902;2023-06-24T00:24:42;18.90;;;9.23;;
4835;SDS011;66719;51.226;6.902;2023-06-24T00:27:09;19.53;;;8.83;;
4835;SDS011;66719;51.226;6.902;2023-06-24T00:29:36;22.50;;;8.80;;
4835;SDS011;66719;51.226;6.902;2023-06-24T00:32:03;17.97;;;8.87;;
4835;SDS011;66719;51.226;6.902;2023-06-24T00:34:30;21.40;;;8.90;;
4835;SDS011;66719;51.226;6.902;2023-06-24T00:36:56;18.33;;;8.20;;
4835;SDS011;66719;51.226;6.902;2023-06-24T00:39:23;20.20;;;9.00;;
4835;SDS011;66719;51.226;6.902;2023-06-24T00:41:50;19.43;;;8.50;;
4835;SDS011;66719;51.226;6.902;2023-06-24T00:44:16;25.40;;;9.07;;
4835;SDS011;66719;51.226;6.902;2023-06-24T00:46:43;17.67;;;8.33;;
4835;SDS011;66719;51.226;6.902;2023-06-24T00:49:10;17.70;;;7.90;;
4835;SDS011;66719;51.226;6.902;2023-06-24T00:51:41;16.33;;;8.50;;
4835;SDS011;66719;51.226;6.902;2023-06-24T00:54:13;23.00;;;9.50;;
4835;SDS011;66719;51.226;6.902;2023-06-24T00:56:40;24.53;;;8.50;;
4835;SDS011;66719;51.226;6.902;2023-06-24T00:59:10;16.87;;;7.83;;
4835;SDS011;66719;51.226;6.902;2023-06-24T01:01:38;19.03;;;7.77;;
4835;SDS011;66719;51.226;6.902;2023-06-24T01:04:06;21.27;;;8.13;;
4835;SDS011;66719;51.226;6.902;2023-06-24T01:06:34;19.50;;;8.10;;
4835;SDS011;66719;51.226;6.902;2023-06-24T01:09:02;17.97;;;8.33;;
4835;SDS011;66719;51.226;6.902;2023-06-24T01:11:31;21.90;;;8.80;;
4835;SDS011;66719;51.226;6.902;2023-06-24T01:13:58;21.07;;;8.53;;
4835;SDS011;66719;51.226;6.902;2023-06-24T01:16:40;16.67;;;7.57;;
4835;SDS011;66719;51.226;6.902;2023-06-24T01:19:28;20.37;;;7.70;;
4835;SDS011;66719;51.226;6.902;2023-06-24T01:22:15;23.43;;;8.57;;
4835;SDS011;66719;51.226;6.902;2023-06-24T01:33:46;19.57;;;8.63;;
4835;SDS011;66719;51.226;6.902;2023-06-24T01:36:29;17.27;;;7.60;;
4835;SDS011;66719;51.226;6.902;2023-06-24T01:39:03;25.30;;;7.60;;
4835;SDS011;66719;51.226;6.902;2023-06-24T01:41:34;23.50;;;8.20;;
4835;SDS011;66719;51.226;6.902;2023-06-24T01:44:06;16.70;;;7.53;;
4835;SDS011;66719;51.226;6.902;2023-06-24T01:46:39;24.50;;;8.77;;
4835;SDS011;66719;51.226;6.902;2023-06-24T01:49:09;19.50;;;9.30;;
4835;SDS011;66719;51.226;6.902;2023-06-24T01:51:39;16.90;;;8.10;;
4835;SDS011;66719;51.226;6.902;2023-06-24T01:54:07;21.43;;;8.80;;
4835;SDS011;66719;51.226;6.902;2023-06-24T01:56:39;21.13;;;9.03;;
4835;SDS011;66719;51.226;6.902;2023-06-24T01:59:08;19.77;;;8.70;;
4835;SDS011;66719;51.226;6.902;2023-06-24T02:01:40;23.20;;;7.77;;
4835;SDS011;66719;51.226;6.902;2023-06-24T02:04:08;19.00;;;7.67;;
4835;SDS011;66719;51.226;6.902;2023-06-24T02:06:36;18.47;;;7.97;;
4835;SDS011;66719;51.226;6.902;2023-06-24T02:09:05;17.60;;;8.07;;
4835;SDS011;66719;51.226;6.902;2023-06-24T02:11:33;22.43;;;8.30;;
4835;SDS011;66719;51.226;6.902;2023-06-24T02:14:01;22.13;;;8.67;;
4835;SDS011;66719;51.226;6.902;2023-06-24T02:16:31;19.67;;;8.20;;
4835;SDS011;66719;51.226;6.902;2023-06-24T02:18:59;18.00;;;7.80;;
4835;SDS011;66719;51.226;6.902;2023-06-24T02:21:29;15.30;;;7.70;;
4835;SDS011;66719;51.226;6.902;2023-06-24T02:23:57;14.47;;;6.70;;
4835;SDS011;66719;51.226;6.902;2023-06-24T02:26:25;19.90;;;7.13;;
4835;SDS011;66719;51.226;6.902;2023-06-24T02:28:52;17.03;;;7.47;;
4835;SDS011;66719;51.226;6.902;2023-06-24T02:31:19;21.87;;;7.70;;
4835;SDS011;66719;51.226;6.902;2023-06-24T02:33:46;22.03;;;7.80;;
4835;SDS011;66719;51.226;6.902;2023-06-24T02:36:13;24.87;;;8.70;;
4835;SDS011;66719;51.226;6.902;2023-06-24T02:38:40;28.83;;;7.87;;
4835;SDS011;66719;51.226;6.902;2023-06-24T02:41:07;19.03;;;7.37;;
4835;SDS011;66719;51.226;6.902;2023-06-24T02:43:33;20.20;;;7.40;;
4835;SDS011;66719;51.226;6.902;2023-06-24T02:46:02;20.70;;;7.97;;
4835;SDS011;66719;51.226;6.902;2023-06-24T02:48:29;21.50;;;8.07;;
4835;SDS011;66719;51.226;6.902;2023-06-24T02:50:59;20.97;;;7.57;;
4835;SDS011;66719;51.226;6.902;2023-06-24T02:53:26;14.50;;;6.93;;
4835;SDS011;66719;51.226;6.902;2023-06-24T02:55:54;21.23;;;7.90;;
4835;SDS011;66719;51.226;6.902;2023-06-24T02:58:21;26.70;;;7.63;;
4835;SDS011;66719;51.226;6.902;2023-06-24T03:00:50;23.80;;;7.93;;
4835;SDS011;66719;51.226;6.902;2023-06-24T03:03:16;25.37;;;7.80;;
4835;SDS011;66719;51.226;6.902;2023-06-24T03:05:44;18.00;;;7.43;;
4835;SDS011;66719;51.226;6.902;2023-06-24T03:08:11;16.80;;;7.07;;
4835;SDS011;66719;51.226;6.902;2023-06-24T03:10:39;18.77;;;7.10;;
4835;SDS011;66719;51.226;6.902;2023-06-24T03:13:05;25.33;;;8.47;;
4835;SDS011;66719;51.226;6.902;2023-06-24T03:15:32;18.17;;;7.10;;
4835;SDS011;66719;51.226;6.902;2023-06-24T03:17:59;23.97;;;7.70;;
4835;SDS011;66719;51.226;6.902;2023-06-24T03:20:25;20.10;;;7.37;;
4835;SDS011;66719;51.226;6.902;2023-06-24T03:22:52;17.37;;;7.67;;
4835;SDS011;66719;51.226;6.902;2023-06-24T03:25:20;22.33;;;7.47;;
4835;SDS011;66719;51.226;6.902;2023-06-24T03:27:47;21.83;;;7.60;;
4835;SDS011;66719;51.226;6.902;2023-06-24T03:30:13;26.80;;;8.43;;
4835;SDS011;66719;51.226;6.902;2023-06-24T03:32:40;21.43;;;7.03;;
4835;SDS011;66719;51.226;6.902;2023-06-24T03:35:13;17.73;;;6.60;;
4835;SDS011;66719;51.226;6.902;2023-06-24T03:37:40;16.97;;;7.17;;
4835;SDS011;66719;51.226;6.902;2023-06-24T03:40:06;23.87;;;7.33;;
4835;SDS011;66719;51.226;6.902;2023-06-24T03:42:34;19.10;;;7.40;;
4835;SDS011;66719;51.226;6.902;2023-06-24T03:45:02;22.27;;;8.30;;
4835;SDS011;66719;51.226;6.902;2023-06-24T03:47:29;21.73;;;7.10;;
4835;SDS011;66719;51.226;6.902;2023-06-24T03:49:56;15.93;;;6.97;;
4835;SDS011;66719;51.226;6.902;2023-06-24T03:52:22;24.37;;;7.17;;
4835;SDS011;66719;51.226;6.902;2023-06-24T03:54:49;23.23;;;7.57;;
4835;SDS011;66719;51.226;6.902;2023-06-24T03:57:16;21.10;;;7.60;;
4835;SDS011;66719;51.226;6.902;2023-06-24T03:59:43;14.87;;;6.77;;
4835;SDS011;66719;51.226;6.902;2023-06-24T04:02:09;25.40;;;6.73;;
4835;SDS011;66719;51.226;6.902;2023-06-24T04:04:36;19.63;;;7.20;;
4835;SDS011;66719;51.226;6.902;2023-06-24T04:07:03;18.80;;;7.63;;
4835;SDS011;66719;51.226;6.902;2023-06-24T04:09:34;20.33;;;7.67;;
4835;SDS011;66719;51.226;6.902;2023-06-24T04:12:04;23.53;;;7.80;;
4835;SDS011;66719;51.226;6.902;2023-06-24T04:14:31;21.53;;;7.50;;
4835;SDS011;66719;51.226;6.902;2023-06-24T04:16:57;27.27;;;8.70;;
4835;SDS011;66719;51.226;6.902;2023-06-24T04:19:24;30.83;;;9.27;;
4835;SDS011;66719;51.226;6.902;2023-06-24T04:21:50;20.67;;;7.43;;
4835;SDS011;66719;51.226;6.902;2023-06-24T04:24:17;25.07;;;7.20;;
4835;SDS011;66719;51.226;6.902;2023-06-24T04:26:43;23.67;;;9.10;;
4835;SDS011;66719;51.226;6.902;2023-06-24T04:29:10;24.30;;;8.40;;
4835;SDS011;66719;51.226;6.902;2023-06-24T04:31:36;17.60;;;7.90;;
4835;SDS011;66719;51.226;6.902;2023-06-24T04:34:03;16.00;;;7.10;;
4835;SDS011;66719;51.226;6.902;2023-06-24T04:36:29;23.50;;;7.13;;
4835;SDS011;66719;51.226;6.902;2023-06-24T04:38:56;17.00;;;7.43;;
4835;SDS011;66719;51.226;6.902;2023-06-24T04:41:23;19.90;;;7.40;;
4835;SDS011;66719;51.226;6.902;2023-06-24T04:43:49;15.30;;;7.70;;
4835;SDS011;66719;51.226;6.902;2023-06-24T04:46:16;17.70;;;8.33;;
4835;SDS011;66719;51.226;6.902;2023-06-24T04:48:43;16.07;;;7.10;;
4835;SDS011;66719;51.226;6.902;2023-06-24T04:51:09;19.50;;;7.17;;
4835;SDS011;66719;51.226;6.902;2023-06-24T04:53:36;20.20;;;7.70;;
4835;SDS011;66719;51.226;6.902;2023-06-24T04:56:02;18.77;;;9.17;;
4835;SDS011;66719;51.226;6.902;2023-06-24T04:58:29;20.83;;;11.63;;
4835;SDS011;66719;51.226;6.902;2023-06-24T05:00:55;19.50;;;9.17;;
4835;SDS011;66719;51.226;6.902;2023-06-24T05:03:22;15.93;;;8.37;;
4835;SDS011;66719;51.226;6.902;2023-06-24T05:05:48;17.33;;;7.80;;
4835;SDS011;66719;51.226;6.902;2023-06-24T05:08:15;14.40;;;7.90;;
4835;SDS011;66719;51.226;6.902;2023-06-24T05:10:42;14.90;;;7.93;;
4835;SDS011;66719;51.226;6.902;2023-06-24T05:13:08;15.53;;;8.00;;
4835;SDS011;66719;51.226;6.902;2023-06-24T05:15:35;14.37;;;8.40;;
4835;SDS011;66719;51.226;6.902;2023-06-24T05:18:02;14.73;;;8.30;;
4835;SDS011;66719;51.226;6.902;2023-06-24T05:20:28;15.23;;;8.60;;
4835;SDS011;66719;51.226;6.902;2023-06-24T05:22:55;16.20;;;8.83;;
4835;SDS011;66719;51.226;6.902;2023-06-24T05:25:21;20.83;;;8.77;;
4835;SDS011;66719;51.226;6.902;2023-06-24T05:27:48;16.00;;;8.93;;
4835;SDS011;66719;51.226;6.902;2023-06-24T05:30:15;18.70;;;9.10;;
4835;SDS011;66719;51.226;6.902;2023-06-24T05:32:41;16.50;;;9.30;;
4835;SDS011;66719;51.226;6.902;2023-06-24T05:35:08;15.00;;;8.97;;
4835;SDS011;66719;51.226;6.902;2023-06-24T05:37:35;17.53;;;8.93;;
4835;SDS011;66719;51.226;6.902;2023-06-24T05:40:02;16.40;;;9.20;;
4835;SDS011;66719;51.226;6.902;2023-06-24T05:42:31;19.57;;;9.30;;
4835;SDS011;66719;51.226;6.902;2023-06-24T05:44:57;22.70;;;9.93;;
4835;SDS011;66719;51.226;6.902;2023-06-24T05:47:24;19.27;;;9.00;;
4835;SDS011;66719;51.226;6.902;2023-06-24T05:49:50;18.60;;;9.50;;
4835;SDS011;66719;51.226;6.902;2023-06-24T05:52:17;17.13;;;9.77;;
4835;SDS011;66719;51.226;6.902;2023-06-24T05:54:43;16.40;;;10.17;;
4835;SDS011;66719;51.226;6.902;2023-06-24T05:57:10;22.90;;;10.77;;
4835;SDS011;66719;51.226;6.902;2023-06-24T05:59:36;18.73;;;9.60;;
4835;SDS011;66719;51.226;6.902;2023-06-24T06:02:04;21.00;;;10.40;;
4835;SDS011;66719;51.226;6.902;2023-06-24T06:04:30;19.90;;;10.17;;
4835;SDS011;66719;51.226;6.902;2023-06-24T06:06:57;19.67;;;9.50;;
4835;SDS011;66719;51.226;6.902;2023-06-24T06:09:23;23.23;;;10.47;;
4835;SDS011;66719;51.226;6.902;2023-06-24T06:11:50;19.97;;;10.07;;
4835;SDS011;66719;51.226;6.902;2023-06-24T06:14:16;17.70;;;9.37;;
4835;SDS011;66719;51.226;6.902;2023-06-24T06:16:43;20.20;;;11.00;;
4835;SDS011;66719;51.226;6.902;2023-06-24T06:19:09;17.67;;;10.70;;
4835;SDS011;66719;51.226;6.902;2023-06-24T06:21:36;20.00;;;10.50;;
4835;SDS011;66719;51.226;6.902;2023-06-24T06:24:04;17.87;;;10.67;;
4835;SDS011;66719;51.226;6.902;2023-06-24T06:26:30;20.30;;;10.80;;
4835;SDS011;66719;51.226;6.902;2023-06-24T06:28:57;22.10;;;10.70;;
4835;SDS011;66719;51.226;6.902;2023-06-24T06:31:23;17.87;;;10.57;;
4835;SDS011;66719;51.226;6.902;2023-06-24T06:33:52;26.10;;;11.70;;
4835;SDS011;66719;51.226;6.902;2023-06-24T06:36:19;23.50;;;12.40;;
4835;SDS011;66719;51.226;6.902;2023-06-24T06:38:45;22.47;;;12.00;;
4835;SDS011;66719;51.226;6.902;2023-06-24T06:41:12;22.00;;;12.07;;
4835;SDS011;66719;51.226;6.902;2023-06-24T06:43:38;21.83;;;11.67;;
4835;SDS011;66719;51.226;6.902;2023-06-24T06:46:05;23.40;;;12.57;;
4835;SDS011;66719;51.226;6.902;2023-06-24T06:48:31;22.17;;;12.57;;
4835;SDS011;66719;51.226;6.902;2023-06-24T06:50:58;20.37;;;12.60;;
4835;SDS011;66719;51.226;6.902;2023-06-24T06:53:24;22.67;;;12.20;;
4835;SDS011;66719;51.226;6.902;2023-06-24T06:55:51;21.40;;;12.20;;
4835;SDS011;66719;51.226;6.902;2023-06-24T06:58:17;21.00;;;12.50;;
4835;SDS011;66719;51.226;6.902;2023-06-24T07:00:44;21.73;;;12.07;;
4835;SDS011;66719;51.226;6.902;2023-06-24T07:03:11;26.27;;;12.97;;
4835;SDS011;66719;51.226;6.902;2023-06-24T07:05:37;19.87;;;12.23;;
4835;SDS011;66719;51.226;6.902;2023-06-24T07:08:05;25.10;;;14.07;;
4835;SDS011;66719;51.226;6.902;2023-06-24T07:10:34;23.30;;;13.33;;
4835;SDS011;66719;51.226;6.902;2023-06-24T07:13:01;24.20;;;13.53;;
4835;SDS011;66719;51.226;6.902;2023-06-24T07:15:29;24.90;;;14.27;;
4835;SDS011;66719;51.226;6.902;2023-06-24T07:17:56;27.27;;;13.50;;
4835;SDS011;66719;51.226;6.902;2023-06-24T07:20:22;36.17;;;15.17;;
4835;SDS011;66719;51.226;6.902;2023-06-24T07:22:49;25.40;;;13.10;;
4835;SDS011;66719;51.226;6.902;2023-06-24T07:25:15;25.23;;;14.90;;
4835;SDS011;66719;51.226;6.902;2023-06-24T07:27:42;25.90;;;15.10;;
4835;SDS011;66719;51.226;6.902;2023-06-24T07:30:09;24.33;;;13.80;;
4835;SDS011;66719;51.226;6.902;2023-06-24T07:32:36;26.67;;;15.07;;
4835;SDS011;66719;51.226;6.902;2023-06-24T07:35:02;28.03;;;14.50;;
4835;SDS011;66719;51.226;6.902;2023-06-24T07:37:29;30.33;;;14.60;;
4835;SDS011;66719;51.226;6.902;2023-06-24T07:39:56;25.07;;;15.33;;
4835;SDS011;66719;51.226;6.902;2023-06-24T07:42:22;29.73;;;14.73;;
4835;SDS011;66719;51.226;6.902;2023-06-24T07:44:49;26.23;;;15.70;;
4835;SDS011;66719;51.226;6.902;2023-06-24T07:47:16;27.10;;;16.27;;
4835;SDS011;66719;51.226;6.902;2023-06-24T07:49:44;24.90;;;15.57;;
4835;SDS011;66719;51.226;6.902;2023-06-24T07:52:11;26.03;;;14.20;;
4835;SDS011;66719;51.226;6.902;2023-06-24T07:54:37;30.67;;;14.40;;
4835;SDS011;66719;51.226;6.902;2023-06-24T07:57:04;27.27;;;14.30;;
4835;SDS011;66719;51.226;6.902;2023-06-24T07:59:30;25.83;;;13.47;;
4835;SDS011;66719;51.226;6.902;2023-06-24T08:01:57;26.97;;;13.30;;
4835;SDS011;66719;51.226;6.902;2023-06-24T08:04:23;24.00;;;13.43;;
4835;SDS011;66719;51.226;6.902;2023-06-24T08:06:50;27.23;;;13.10;;
4835;SDS011;66719;51.226;6.902;2023-06-24T08:09:17;28.07;;;13.50;;
4835;SDS011;66719;51.226;6.902;2023-06-24T08:11:43;19.97;;;12.43;;
4835;SDS011;66719;51.226;6.902;2023-06-24T08:14:10;20.80;;;11.77;;
4835;SDS011;66719;51.226;6.902;2023-06-24T08:16:37;22.03;;;12.00;;
4835;SDS011;66719;51.226;6.902;2023-06-24T08:19:03;26.37;;;12.00;;
4835;SDS011;66719;51.226;6.902;2023-06-24T08:21:30;24.40;;;12.30;;
4835;SDS011;66719;51.226;6.902;2023-06-24T08:23:57;23.67;;;11.50;;
4835;SDS011;66719;51.226;6.902;2023-06-24T08:26:23;24.40;;;11.93;;
4835;SDS011;66719;51.226;6.902;2023-06-24T08:28:50;21.77;;;12.20;;
4835;SDS011;66719;51.226;6.902;2023-06-24T08:31:16;17.60;;;10.57;;
4835;SDS011;66719;51.226;6.902;2023-06-24T08:33:44;23.73;;;11.90;;
4835;SDS011;66719;51.226;6.902;2023-06-24T08:36:13;24.70;;;12.20;;
4835;SDS011;66719;51.226;6.902;2023-06-24T08:38:40;21.90;;;10.57;;
4835;SDS011;66719;51.226;6.902;2023-06-24T08:41:07;19.90;;;10.13;;
4835;SDS011;66719;51.226;6.902;2023-06-24T08:43:33;22.23;;;11.50;;
4835;SDS011;66719;51.226;6.902;2023-06-24T08:46:00;21.10;;;11.47;;
4835;SDS011;66719;51.226;6.902;2023-06-24T08:48:26;19.07;;;10.90;;
4835;SDS011;66719;51.226;6.902;2023-06-24T08:50:56;21.87;;;10.43;;
4835;SDS011;66719;51.226;6.902;2023-06-24T08:53:24;27.33;;;10.77;;
4835;SDS011;66719;51.226;6.902;2023-06-24T08:55:53;19.20;;;10.13;;
4835;SDS011;66719;51.226;6.902;2023-06-24T08:58:20;19.90;;;10.90;;
4835;SDS011;66719;51.226;6.902;2023-06-24T09:00:47;19.80;;;9.87;;
4835;SDS011;66719;51.226;6.902;2023-06-24T09:03:14;18.03;;;9.33;;
4835;SDS011;66719;51.226;6.902;2023-06-24T09:05:42;22.47;;;10.37;;
4835;SDS011;66719;51.226;6.902;2023-06-24T09:08:10;24.13;;;9.47;;
4835;SDS011;66719;51.226;6.902;2023-06-24T09:10:37;22.40;;;9.40;;
4835;SDS011;66719;51.226;6.902;2023-06-24T09:13:04;25.53;;;9.10;;
4835;SDS011;66719;51.226;6.902;2023-06-24T09:15:35;18.87;;;9.13;;
4835;SDS011;66719;51.226;6.902;2023-06-24T09:18:04;17.93;;;8.33;;
4835;SDS011;66719;51.226;6.902;2023-06-24T09:20:32;23.63;;;9.40;;
4835;SDS011;66719;51.226;6.902;2023-06-24T09:23:00;19.67;;;7.97;;
4835;SDS011;66719;51.226;6.902;2023-06-24T09:25:27;17.27;;;7.70;;
4835;SDS011;66719;51.226;6.902;2023-06-24T09:27:55;18.03;;;8.90;;
4835;SDS011;66719;51.226;6.902;2023-06-24T09:30:25;22.50;;;9.93;;
4835;SDS011;66719;51.226;6.902;2023-06-24T09:32:51;18.60;;;9.07;;
4835;SDS011;66719;51.226;6.902;2023-06-24T09:35:23;17.40;;;8.60;;
4835;SDS011;66719;51.226;6.902;2023-06-24T09:40:17;14.63;;;6.80;;
4835;SDS011;66719;51.226;6.902;2023-06-24T09:42:50;17.93;;;6.83;;
4835;SDS011;66719;51.226;6.902;2023-06-24T09:45:19;16.57;;;7.33;;
4835;SDS011;66719;51.226;6.902;2023-06-24T09:47:53;14.87;;;7.00;;
4835;SDS011;66719;51.226;6.902;2023-06-24T09:50:20;21.33;;;7.57;;
4835;SDS011;66719;51.226;6.902;2023-06-24T09:52:48;18.33;;;8.03;;
4835;SDS011;66719;51.226;6.902;2023-06-24T09:55:16;16.43;;;6.73;;
4835;SDS011;66719;51.226;6.902;2023-06-24T09:57:47;21.70;;;7.57;;
4835;SDS011;66719;51.226;6.902;2023-06-24T10:00:20;13.20;;;6.17;;
4835;SDS011;66719;51.226;6.902;2023-06-24T10:02:47;18.27;;;6.70;;
4835;SDS011;66719;51.226;6.902;2023-06-24T10:05:15;18.60;;;5.80;;
4835;SDS011;66719;51.226;6.902;2023-06-24T10:07:42;16.00;;;6.60;;
4835;SDS011;66719;51.226;6.902;2023-06-24T10:10:09;13.77;;;6.50;;
4835;SDS011;66719;51.226;6.902;2023-06-24T10:12:36;16.40;;;6.30;;
4835;SDS011;66719;51.226;6.902;2023-06-24T10:15:04;13.93;;;6.20;;
4835;SDS011;66719;51.226;6.902;2023-06-24T10:17:32;12.53;;;5.00;;
4835;SDS011;66719;51.226;6.902;2023-06-24T10:19:59;11.13;;;4.90;;
4835;SDS011;66719;51.226;6.902;2023-06-24T10:22:30;11.90;;;4.93;;
4835;SDS011;66719;51.226;6.902;2023-06-24T10:25:01;10.30;;;4.20;;
4835;SDS011;66719;51.226;6.902;2023-06-24T10:27:31;14.50;;;5.10;;
4835;SDS011;66719;51.226;6.902;2023-06-24T10:30:06;12.53;;;4.33;;
4835;SDS011;66719;51.226;6.902;2023-06-24T10:32:41;11.50;;;4.37;;
4835;SDS011;66719;51.226;6.902;2023-06-24T10:35:24;17.57;;;5.20;;
4835;SDS011;66719;51.226;6.902;2023-06-24T10:37:57;15.00;;;4.47;;
4835;SDS011;66719;51.226;6.902;2023-06-24T10:40:35;12.00;;;4.30;;
4835;SDS011;66719;51.226;6.902;2023-06-24T10:43:32;12.87;;;4.90;;
4835;SDS011;66719;51.226;6.902;2023-06-24T10:45:57;13.87;;;5.80;;
4835;SDS011;66719;51.226;6.902;2023-06-24T10:48:27;18.17;;;5.80;;
4835;SDS011;66719;51.226;6.902;2023-06-24T10:50:54;11.67;;;5.03;;
4835;SDS011;66719;51.226;6.902;2023-06-24T10:53:21;11.90;;;5.70;;
4835;SDS011;66719;51.226;6.902;2023-06-24T10:55:48;13.50;;;6.00;;
4835;SDS011;66719;51.226;6.902;2023-06-24T10:58:14;14.17;;;6.50;;
4835;SDS011;66719;51.226;6.902;2023-06-24T11:00:42;15.10;;;4.50;;
4835;SDS011;66719;51.226;6.902;2023-06-24T11:03:14;14.17;;;5.33;;
4835;SDS011;66719;51.226;6.902;2023-06-24T11:05:42;13.83;;;5.23;;
4835;SDS011;66719;51.226;6.902;2023-06-24T11:08:10;15.27;;;6.03;;
4835;SDS011;66719;51.226;6.902;2023-06-24T11:10:44;13.53;;;4.90;;
4835;SDS011;66719;51.226;6.902;2023-06-24T11:13:14;14.63;;;4.90;;
4835;SDS011;66719;51.226;6.902;2023-06-24T11:15:41;11.20;;;4.33;;
4835;SDS011;66719;51.226;6.902;2023-06-24T11:18:09;10.70;;;3.67;;
4835;SDS011;66719;51.226;6.902;2023-06-24T11:20:38;11.97;;;4.93;;
4835;SDS011;66719;51.226;6.902;2023-06-24T11:23:06;15.87;;;6.07;;
4835;SDS011;66719;51.226;6.902;2023-06-24T11:25:38;13.40;;;5.40;;
4835;SDS011;66719;51.226;6.902;2023-06-24T11:28:11;17.07;;;3.80;;
4835;SDS011;66719;51.226;6.902;2023-06-24T11:30:47;12.07;;;4.43;;
4835;SDS011;66719;51.226;6.902;2023-06-24T11:33:25;11.33;;;4.53;;
4835;SDS011;66719;51.226;6.902;2023-06-24T11:35:53;12.67;;;4.57;;
4835;SDS011;66719;51.226;6.902;2023-06-24T11:38:19;10.30;;;4.03;;
4835;SDS011;66719;51.226;6.902;2023-06-24T11:40:47;11.03;;;4.57;;
4835;SDS011;66719;51.226;6.902;2023-06-24T11:43:14;10.33;;;3.80;;
4835;SDS011;66719;51.226;6.902;2023-06-24T11:45:41;14.30;;;4.03;;
4835;SDS011;66719;51.226;6.902;2023-06-24T11:48:07;9.70;;;3.80;;
4835;SDS011;66719;51.226;6.902;2023-06-24T11:50:35;9.30;;;3.30;;
4835;SDS011;66719;51.226;6.902;2023-06-24T11:53:03;9.97;;;3.70;;
4835;SDS011;66719;51.226;6.902;2023-06-24T11:55:31;12.40;;;6.20;;
4835;SDS011;66719;51.226;6.902;2023-06-24T11:57:58;16.37;;;4.30;;
4835;SDS011;66719;51.226;6.902;2023-06-24T12:00:29;11.77;;;3.77;;
4835;SDS011;66719;51.226;6.902;2023-06-24T12:02:57;12.10;;;3.40;;
4835;SDS011;66719;51.226;6.902;2023-06-24T12:05:29;9.17;;;3.00;;
4835;SDS011;66719;51.226;6.902;2023-06-24T12:08:01;10.43;;;3.90;;
4835;SDS011;66719;51.226;6.902;2023-06-24T12:10:32;11.40;;;4.10;;
4835;SDS011;66719;51.226;6.902;2023-06-24T12:13:01;11.00;;;3.73;;
4835;SDS011;66719;51.226;6.902;2023-06-24T12:15:29;14.90;;;3.90;;
4835;SDS011;66719;51.226;6.902;2023-06-24T12:17:55;16.80;;;4.23;;
4835;SDS011;66719;51.226;6.902;2023-06-24T12:20:23;11.70;;;4.37;;
4835;SDS011;66719;51.226;6.902;2023-06-24T12:22:55;13.93;;;3.60;;
4835;SDS011;66719;51.226;6.902;2023-06-24T12:25:22;10.30;;;4.00;;
4835;SDS011;66719;51.226;6.902;2023-06-24T12:27:49;11.63;;;4.07;;
4835;SDS011;66719;51.226;6.902;2023-06-24T12:30:16;9.77;;;3.70;;
4835;SDS011;66719;51.226;6.902;2023-06-24T12:32:55;16.10;;;4.13;;
4835;SDS011;66719;51.226;6.902;2023-06-24T12:35:22;13.90;;;3.80;;
4835;SDS011;66719;51.226;6.902;2023-06-24T12:37:52;10.07;;;3.67;;
4835;SDS011;66719;51.226;6.902;2023-06-24T12:40:18;11.67;;;4.20;;
4835;SDS011;66719;51.226;6.902;2023-06-24T12:42:45;9.93;;;3.80;;
4835;SDS011;66719;51.226;6.902;2023-06-24T12:45:11;15.40;;;4.10;;
4835;SDS011;66719;51.226;6.902;2023-06-24T12:47:38;15.20;;;3.83;;
4835;SDS011;66719;51.226;6.902;2023-06-24T12:50:05;10.27;;;3.77;;
4835;SDS011;66719;51.226;6.902;2023-06-24T12:52:34;11.40;;;4.00;;
4835;SDS011;66719;51.226;6.902;2023-06-24T12:55:01;13.17;;;4.40;;
4835;SDS011;66719;51.226;6.902;2023-06-24T12:57:29;10.83;;;4.00;;
4835;SDS011;66719;51.226;6.902;2023-06-24T12:59:56;11.07;;;3.80;;
4835;SDS011;66719;51.226;6.902;2023-06-24T13:02:23;9.77;;;3.57;;
4835;SDS011;66719;51.226;6.902;2023-06-24T13:04:49;10.90;;;3.73;;
4835;SDS011;66719;51.226;6.902;2023-06-24T13:07:16;14.30;;;4.03;;
4835;SDS011;66719;51.226;6.902;2023-06-24T13:09:43;13.73;;;4.37;;
4835;SDS011;66719;51.226;6.902;2023-06-24T13:12:09;11.30;;;3.63;;
4835;SDS011;66719;51.226;6.902;2023-06-24T13:14:36;9.77;;;3.50;;
4835;SDS011;66719;51.226;6.902;2023-06-24T13:17:03;11.00;;;4.20;;
4835;SDS011;66719;51.226;6.902;2023-06-24T13:19:29;10.03;;;3.67;;
4835;SDS011;66719;51.226;6.902;2023-06-24T13:21:56;8.83;;;3.47;;
4835;SDS011;66719;51.226;6.902;2023-06-24T13:24:22;10.47;;;3.77;;
4835;SDS011;66719;51.226;6.902;2023-06-24T13:26:49;8.87;;;3.43;;
4835;SDS011;66719;51.226;6.902;2023-06-24T13:29:16;8.40;;;2.80;;
4835;SDS011;66719;51.226;6.902;2023-06-24T13:31:42;9.13;;;2.77;;
4835;SDS011;66719;51.226;6.902;2023-06-24T13:34:09;10.00;;;3.20;;
4835;SDS011;66719;51.226;6.902;2023-06-24T13:36:36;9.33;;;3.63;;
4835;SDS011;66719;51.226;6.902;2023-06-24T13:39:05;9.10;;;3.10;;
4835;SDS011;66719;51.226;6.902;2023-06-24T13:41:33;8.83;;;3.47;;
4835;SDS011;66719;51.226;6.902;2023-06-24T13:44:00;10.70;;;3.47;;
4835;SDS011;66719;51.226;6.902;2023-06-24T13:46:28;9.50;;;3.30;;
4835;SDS011;66719;51.226;6.902;2023-06-24T13:48:56;7.90;;;2.70;;
4835;SDS011;66719;51.226;6.902;2023-06-24T13:51:23;9.87;;;3.10;;
4835;SDS011;66719;51.226;6.902;2023-06-24T13:53:50;9.30;;;3.23;;
4835;SDS011;66719;51.226;6.902;2023-06-24T13:56:18;8.00;;;2.60;;
4835;SDS011;66719;51.226;6.902;2023-06-24T13:58:46;8.97;;;3.80;;
4835;SDS011;66719;51.226;6.902;2023-06-24T14:01:13;9.03;;;2.80;;
4835;SDS011;66719;51.226;6.902;2023-06-24T14:03:40;8.57;;;3.10;;
4835;SDS011;66719;51.226;6.902;2023-06-24T14:06:06;9.40;;;3.10;;
4835;SDS011;66719;51.226;6.902;2023-06-24T14:08:33;8.50;;;3.10;;
4835;SDS011;66719;51.226;6.902;2023-06-24T14:11:00;7.50;;;2.30;;
4835;SDS011;66719;51.226;6.902;2023-06-24T14:13:27;7.93;;;2.63;;
4835;SDS011;66719;51.226;6.902;2023-06-24T14:15:54;8.83;;;3.10;;
4835;SDS011;66719;51.226;6.902;2023-06-24T14:18:22;8.57;;;3.20;;
4835;SDS011;66719;51.226;6.902;2023-06-24T14:20:48;8.40;;;2.90;;
4835;SDS011;66719;51.226;6.902;2023-06-24T14:23:15;8.37;;;3.20;;
4835;SDS011;66719;51.226;6.902;2023-06-24T14:25:42;8.30;;;3.10;;
4835;SDS011;66719;51.226;6.902;2023-06-24T14:28:08;10.60;;;3.40;;
4835;SDS011;66719;51.226;6.902;2023-06-24T14:30:35;8.97;;;3.03;;
4835;SDS011;66719;51.226;6.902;2023-06-24T14:33:02;10.50;;;3.13;;
4835;SDS011;66719;51.226;6.902;2023-06-24T14:35:29;8.73;;;2.90;;
4835;SDS011;66719;51.226;6.902;2023-06-24T14:37:56;9.10;;;3.70;;
4835;SDS011;66719;51.226;6.902;2023-06-24T14:40:23;9.40;;;3.20;;
4835;SDS011;66719;51.226;6.902;2023-06-24T14:42:50;8.17;;;2.70;;
4835;SDS011;66719;51.226;6.902;2023-06-24T14:45:16;11.43;;;3.50;;
4835;SDS011;66719;51.226;6.902;2023-06-24T14:47:44;9.23;;;3.17;;
4835;SDS011;66719;51.226;6.902;2023-06-24T14:50:11;8.70;;;3.10;;
4835;SDS011;66719;51.226;6.902;2023-06-24T14:52:37;10.13;;;3.60;;
4835;SDS011;66719;51.226;6.902;2023-06-24T14:55:04;8.07;;;2.87;;
4835;SDS011;66719;51.226;6.902;2023-06-24T14:57:31;8.50;;;2.80;;
4835;SDS011;66719;51.226;6.902;2023-06-24T14:59:57;8.97;;;2.50;;